Time;durP1;ratioP1;P1;durP2;ratioP2;P2;SDS_P1;SDS_P2;PMS_P1;PMS_P2;Temp;Humidity;BMP_temperature;BMP_pressure;BME280_temperature;BME280_humidity;BME280_pressure;Samples;Min_cycle;Max_cycle;Signal;HPM_P1;HPM_P2
2021/11/26 00:00:11;;;;;;;214.90;98.35;;;;;;;-1.08;77.36;93735.37;1659798;83;21419;-58
2021/11/26 00:02:39;;;;;;;166.92;81.97;;;;;;;-1.10;77.58;93752.55;1684663;83;21212;-58
2021/11/26 00:05:08;;;;;;;143.47;67.27;;;;;;;-1.04;77.80;93750.95;1678151;83;21066;-58
2021/11/26 00:07:34;;;;;;;99.72;55.08;;;;;;;-0.99;78.16;93741.10;1678542;84;21039;-56
2021/11/26 00:10:01;;;;;;;94.40;51.02;;;;;;;-0.91;78.39;93742.56;1682520;83;21553;-57
2021/11/26 00:12:28;;;;;;;91.00;49.33;;;;;;;-0.86;78.61;93743.47;1700578;83;21098;-58
2021/11/26 00:17:25;;;;;;;59.40;33.40;;;;;;;-0.82;78.97;93740.16;1695823;83;21066;-58
2021/11/26 00:19:52;;;;;;;57.93;32.80;;;;;;;-0.79;79.06;93743.42;1678984;84;21465;-58
2021/11/26 00:22:19;;;;;;;60.38;35.17;;;;;;;-0.81;79.10;93744.41;1681539;82;20977;-57
2021/11/26 00:24:45;;;;;;;72.10;36.30;;;;;;;-0.80;79.50;93738.59;1672131;84;21112;-58
2021/11/26 00:27:12;;;;;;;61.58;31.93;;;;;;;-0.69;80.13;93735.80;1679019;84;21164;-56
2021/11/26 00:29:39;;;;;;;52.48;28.95;;;;;;;-0.57;80.17;93752.86;1681191;84;21039;-58
2021/11/26 00:32:07;;;;;;;60.85;33.20;;;;;;;-0.58;79.98;93741.88;1657346;84;21510;-56
2021/11/26 00:34:34;;;;;;;83.45;43.75;;;;;;;-0.58;80.45;93748.63;1686483;84;21001;-58
2021/11/26 00:37:01;;;;;;;139.20;72.95;;;;;;;-0.55;80.61;93753.22;1682993;84;21065;-57
2021/11/26 00:39:28;;;;;;;142.82;75.40;;;;;;;-0.56;79.85;93761.14;1685404;84;21127;-57
2021/11/26 00:41:54;;;;;;;151.20;80.07;;;;;;;-0.67;79.40;93739.64;1664203;84;21520;-58
2021/11/26 00:44:21;;;;;;;157.88;81.82;;;;;;;-0.72;79.07;93736.60;1680163;82;21415;-59
2021/11/26 00:46:47;;;;;;;162.05;82.97;;;;;;;-0.81;79.09;93737.06;1713268;82;22130;-58
2021/11/26 00:49:15;;;;;;;146.70;76.00;;;;;;;-0.81;79.05;93725.52;1699434;83;21105;-58
2021/11/26 00:51:41;;;;;;;125.78;65.40;;;;;;;-0.86;79.17;93736.73;1711348;82;21145;-58
2021/11/26 00:54:10;;;;;;;148.40;75.75;;;;;;;-0.88;79.34;93738.49;1709097;82;21105;-59
2021/11/26 00:56:37;;;;;;;129.95;68.00;;;;;;;-0.83;79.43;93733.22;1677123;83;21046;-58
2021/11/26 00:59:04;;;;;;;95.67;53.35;;;;;;;-0.81;79.41;93724.17;1679189;83;21156;-59
2021/11/26 01:01:31;;;;;;;108.07;57.25;;;;;;;-0.71;80.01;93732.73;1679516;83;21522;-59
2021/11/26 01:03:58;;;;;;;97.47;52.62;;;;;;;-0.64;79.56;93725.91;1675987;83;21558;-58
2021/11/26 01:06:25;;;;;;;102.58;61.50;;;;;;;-0.64;79.31;93724.55;1722542;82;21015;-58
2021/11/26 01:08:51;;;;;;;102.62;58.75;;;;;;;-0.67;79.03;93724.79;1679606;83;20949;-57
2021/11/26 01:11:18;;;;;;;88.47;53.65;;;;;;;-0.69;79.09;93727.13;1673433;84;21083;-57
2021/11/26 01:13:46;;;;;;;122.90;65.17;;;;;;;-0.66;79.39;93726.89;1679794;84;21091;-58
2021/11/26 01:16:13;;;;;;;141.92;75.70;;;;;;;-0.67;78.91;93725.36;1680651;84;21146;-58
2021/11/26 01:18:39;;;;;;;166.15;80.65;;;;;;;-0.67;78.97;93726.70;1682703;84;20973;-57
2021/11/26 01:21:07;;;;;;;107.58;57.85;;;;;;;-0.72;78.60;93725.23;1675163;83;21043;-56
2021/11/26 01:23:37;;;;;;;146.65;75.97;;;;;;;-0.73;78.56;93721.57;1696139;83;21089;-59
2021/11/26 01:26:04;;;;;;;147.02;75.47;;;;;;;-0.79;78.34;93727.23;1681508;83;21044;-58
2021/11/26 01:28:32;;;;;;;146.13;76.40;;;;;;;-0.87;78.37;93730.58;1692514;83;21181;-59
2021/11/26 01:30:59;;;;;;;132.78;69.27;;;;;;;-0.88;78.44;93733.66;1671940;84;21018;-58
2021/11/26 01:33:26;;;;;;;125.47;67.55;;;;;;;-0.93;78.33;93735.45;1681173;83;21012;-57
2021/11/26 01:35:54;;;;;;;126.80;63.50;;;;;;;-0.91;78.87;93739.86;1691917;83;21046;-58
2021/11/26 01:38:21;;;;;;;127.78;66.85;;;;;;;-0.85;78.76;93736.34;1696139;83;21625;-58
2021/11/26 01:40:49;;;;;;;117.03;62.05;;;;;;;-0.81;79.09;93724.92;1676289;83;21150;-57
2021/11/26 01:43:20;;;;;;;105.50;60.05;;;;;;;-0.72;79.27;93729.85;1680586;83;21037;-58
2021/11/26 01:45:53;;;;;;;115.42;62.13;;;;;;;-0.65;79.47;93731.13;1674398;83;21034;-58
2021/11/26 01:48:22;;;;;;;132.65;73.07;;;;;;;-0.62;79.01;93723.59;1699059;82;20990;-57
2021/11/26 01:50:50;;;;;;;133.85;74.10;;;;;;;-0.65;78.44;93729.77;1723376;82;21545;-60
2021/11/26 01:53:17;;;;;;;150.00;78.80;;;;;;;-0.71;78.41;93731.38;1729944;82;21213;-58
2021/11/26 01:55:44;;;;;;;138.37;74.92;;;;;;;-0.75;78.15;93728.70;1718729;81;21031;-59
2021/11/26 01:58:11;;;;;;;161.77;81.28;;;;;;;-0.78;77.77;93724.71;1691906;83;21113;-56
2021/11/26 02:00:40;;;;;;;209.87;100.00;;;;;;;-0.85;77.46;93713.39;1682992;83;21015;-57
2021/11/26 02:03:06;;;;;;;200.30;99.40;;;;;;;-0.94;77.49;93706.92;1700380;83;21046;-58
2021/11/26 02:05:33;;;;;;;133.85;69.27;;;;;;;-0.99;77.99;93708.72;1696488;83;21071;-57
2021/11/26 02:08:00;;;;;;;172.37;87.95;;;;;;;-1.01;77.86;93706.97;1680806;83;20961;-59
2021/11/26 02:10:27;;;;;;;164.57;81.20;;;;;;;-1.05;77.91;93699.50;1679533;84;21041;-56
2021/11/26 02:12:54;;;;;;;131.93;71.20;;;;;;;-1.09;78.08;93695.50;1679478;84;21083;-57
2021/11/26 02:15:24;;;;;;;134.22;69.40;;;;;;;-1.07;78.36;93699.13;1671391;85;21040;-58
2021/11/26 02:17:55;;;;;;;144.65;78.07;;;;;;;-1.12;78.27;93704.97;1679580;84;22128;-57
2021/11/26 02:20:24;;;;;;;165.12;80.20;;;;;;;-1.18;78.30;93705.22;1695698;83;21109;-56
2021/11/26 02:22:52;;;;;;;266.15;115.65;;;;;;;-1.20;78.43;93698.08;1712739;82;21074;-56
2021/11/26 02:25:22;;;;;;;278.32;125.58;;;;;;;-1.19;78.29;93706.36;1712431;82;21050;-57
2021/11/26 02:27:52;;;;;;;211.50;95.83;;;;;;;-1.25;78.45;93700.64;1713787;82;21137;-56
2021/11/26 02:30:19;;;;;;;152.93;78.85;;;;;;;-1.23;78.52;93706.41;1695704;82;21093;-58
2021/11/26 02:32:58;;;;;;;150.15;78.85;;;;;;;-1.29;78.27;93711.27;1696024;82;21642;-56
2021/11/26 02:35:26;;;;;;;202.43;95.05;;;;;;;-1.37;78.30;93705.73;1680295;84;21021;-58
2021/11/26 02:37:53;;;;;;;206.72;100.53;;;;;;;-1.38;78.50;93706.89;1673917;84;21095;-57
2021/11/26 02:40:22;;;;;;;173.87;83.05;;;;;;;-1.41;78.56;93701.73;1676029;84;21102;-58
2021/11/26 02:42:50;;;;;;;192.80;95.55;;;;;;;-1.39;78.97;93693.23;1678464;84;21147;-58
2021/11/26 02:45:18;;;;;;;183.85;96.05;;;;;;;-1.32;79.36;93697.23;1691931;84;21577;-57
2021/11/26 02:47:45;;;;;;;179.07;94.22;;;;;;;-1.27;79.21;93701.62;1684191;84;21515;-57
2021/11/26 02:50:12;;;;;;;198.43;98.15;;;;;;;-1.21;79.52;93693.28;1684337;84;20954;-57
2021/11/26 02:52:39;;;;;;;172.82;90.07;;;;;;;-1.16;79.36;93688.80;1683421;84;20962;-58
2021/11/26 02:55:08;;;;;;;188.87;93.50;;;;;;;-1.11;79.29;93692.41;1681513;83;21188;-57
2021/11/26 02:57:35;;;;;;;188.45;96.82;;;;;;;-1.09;78.94;93683.36;1677137;83;21578;-57
2021/11/26 03:00:05;;;;;;;212.50;103.10;;;;;;;-1.06;79.07;93666.94;1685195;83;20979;-58
2021/11/26 03:02:33;;;;;;;168.45;87.82;;;;;;;-1.03;79.17;93682.33;1679934;83;21216;-58
2021/11/26 03:05:00;;;;;;;189.40;97.05;;;;;;;-1.00;78.81;93686.34;1684079;83;21109;-56
2021/11/26 03:07:27;;;;;;;194.32;100.60;;;;;;;-1.01;78.90;93686.17;1683404;84;21170;-57
2021/11/26 03:09:53;;;;;;;195.92;100.92;;;;;;;-1.02;78.84;93667.66;1682296;84;21069;-58
2021/11/26 03:12:20;;;;;;;162.07;81.75;;;;;;;-1.02;78.85;93670.36;1682158;83;21082;-56
2021/11/26 03:14:47;;;;;;;154.75;79.90;;;;;;;-1.02;78.64;93669.80;1674291;83;21020;-57
2021/11/26 03:17:15;;;;;;;159.25;84.30;;;;;;;-1.04;78.36;93659.98;1680042;84;21061;-57
2021/11/26 03:19:42;;;;;;;194.32;93.72;;;;;;;-1.09;78.19;93663.70;1679787;84;21138;-57
2021/11/26 03:22:08;;;;;;;196.75;98.00;;;;;;;-1.14;78.26;93676.27;1700020;83;20954;-57
2021/11/26 03:24:35;;;;;;;193.28;97.82;;;;;;;-1.21;78.18;93676.32;1677601;83;21140;-57
2021/11/26 03:27:02;;;;;;;199.82;100.40;;;;;;;-1.25;78.37;93678.28;1700193;83;21448;-57
2021/11/26 03:29:28;;;;;;;204.45;111.70;;;;;;;-1.25;78.76;93681.77;1692694;83;20997;-57
2021/11/26 03:31:55;;;;;;;202.50;103.38;;;;;;;-1.21;78.97;93679.80;1694625;83;21217;-56
2021/11/26 03:34:22;;;;;;;165.68;86.02;;;;;;;-1.16;79.17;93678.61;1689405;83;21055;-56
2021/11/26 03:36:49;;;;;;;166.53;85.47;;;;;;;-1.13;79.09;93665.67;1689544;83;20962;-56
2021/11/26 03:39:16;;;;;;;203.25;94.92;;;;;;;-1.19;78.83;93661.84;1687209;83;21106;-57
2021/11/26 03:41:42;;;;;;;184.43;96.12;;;;;;;-1.26;78.84;93661.92;1691203;83;21494;-55
2021/11/26 03:44:09;;;;;;;188.90;94.42;;;;;;;-1.29;79.00;93666.77;1688983;83;21161;-55
2021/11/26 03:46:37;;;;;;;192.80;97.47;;;;;;;-1.20;79.50;93664.36;1680391;84;21200;-56
2021/11/26 03:49:04;;;;;;;199.35;99.35;;;;;;;-1.05;79.36;93663.07;1697120;83;21081;-57
2021/11/26 03:51:32;;;;;;;170.20;84.65;;;;;;;-0.98;78.98;93664.38;1682709;84;21494;-57
2021/11/26 03:53:59;;;;;;;174.25;87.57;;;;;;;-0.94;78.76;93663.75;1683330;84;21574;-58
2021/11/26 03:56:25;;;;;;;178.18;89.17;;;;;;;-0.83;79.18;93661.69;1696951;81;21132;-56
2021/11/26 03:58:52;;;;;;;168.40;83.33;;;;;;;-0.75;78.83;93651.02;1678012;84;21069;-56
2021/11/26 04:01:18;;;;;;;155.30;75.20;;;;;;;-0.70;78.49;93646.52;1699431;84;21478;-57
2021/11/26 04:03:45;;;;;;;176.47;87.90;;;;;;;-0.69;78.16;93647.48;1677411;84;21069;-56
2021/11/26 04:06:12;;;;;;;165.10;86.65;;;;;;;-0.79;77.88;93658.39;1692863;83;21104;-58
2021/11/26 04:08:39;;;;;;;182.47;92.02;;;;;;;-0.82;78.03;93652.42;1674180;84;21140;-58
2021/11/26 04:11:08;;;;;;;172.30;89.25;;;;;;;-0.85;77.77;93651.88;1687614;83;21000;-58
2021/11/26 04:13:36;;;;;;;186.60;86.10;;;;;;;-0.87;77.78;93656.34;1678962;84;21572;-57
2021/11/26 04:16:06;;;;;;;170.35;83.20;;;;;;;-0.88;77.90;93643.24;1671663;84;21068;-57
2021/11/26 04:18:34;;;;;;;166.03;84.35;;;;;;;-0.81;77.90;93649.34;1681396;84;20993;-58
2021/11/26 04:21:02;;;;;;;204.72;94.05;;;;;;;-0.75;77.68;93644.27;1679965;83;21220;-57
2021/11/26 04:23:29;;;;;;;178.47;87.37;;;;;;;-0.73;77.48;93642.71;1690697;83;21022;-56
2021/11/26 04:25:56;;;;;;;168.45;84.72;;;;;;;-0.73;77.61;93640.58;1693673;83;21094;-56
2021/11/26 04:28:23;;;;;;;183.95;92.65;;;;;;;-0.64;77.80;93645.68;1692481;83;20976;-57
2021/11/26 04:30:49;;;;;;;171.72;87.15;;;;;;;-0.59;77.25;93644.48;1695027;83;21503;-57
2021/11/26 04:33:16;;;;;;;220.27;112.17;;;;;;;-0.59;77.10;93639.08;1693171;83;21183;-57
2021/11/26 04:35:49;;;;;;;216.48;110.57;;;;;;;-0.64;76.84;93633.53;1684883;83;21646;-57
2021/11/26 04:38:16;;;;;;;213.80;107.43;;;;;;;-0.67;76.93;93620.84;1693067;81;21096;-58
2021/11/26 04:40:43;;;;;;;186.05;96.32;;;;;;;-0.57;77.04;93624.58;1726908;81;21220;-58
2021/11/26 04:43:10;;;;;;;183.82;95.67;;;;;;;-0.57;76.69;93631.34;1722922;81;21058;-58
2021/11/26 04:45:37;;;;;;;191.03;97.22;;;;;;;-0.57;76.84;93623.98;1700546;82;21070;-58
2021/11/26 04:48:04;;;;;;;188.35;94.35;;;;;;;-0.51;76.52;93627.02;1709618;83;21556;-56
2021/11/26 04:50:31;;;;;;;195.15;100.78;;;;;;;-0.54;76.10;93625.12;1709927;82;21467;-56
2021/11/26 04:52:57;;;;;;;173.50;89.15;;;;;;;-0.56;76.48;93622.06;1710760;82;21005;-58
2021/11/26 04:55:26;;;;;;;187.32;97.15;;;;;;;-0.53;76.18;93623.95;1694759;82;21015;-59
2021/11/26 04:57:53;;;;;;;170.02;87.92;;;;;;;-0.59;76.17;93618.23;1713049;82;21101;-58
2021/11/26 05:00:22;;;;;;;190.60;100.20;;;;;;;-0.58;76.11;93617.66;1708066;82;21573;-57
2021/11/26 05:02:51;;;;;;;202.93;103.92;;;;;;;-0.64;75.86;93621.95;1689683;82;21463;-58
2021/11/26 05:05:19;;;;;;;242.20;121.42;;;;;;;-0.72;76.10;93623.22;1708395;82;20975;-58
2021/11/26 05:07:46;;;;;;;243.40;122.20;;;;;;;-0.75;76.15;93624.02;1713814;82;21050;-58
2021/11/26 05:10:14;;;;;;;256.52;125.35;;;;;;;-0.71;76.25;93624.74;1690457;82;21947;-57
2021/11/26 05:12:54;;;;;;;239.90;121.95;;;;;;;-0.69;76.14;93640.73;1679356;84;21013;-57
2021/11/26 05:15:24;;;;;;;233.82;120.53;;;;;;;-0.67;76.31;93632.21;1681675;84;21024;-58
2021/11/26 05:17:49;;;;;;;215.22;112.30;;;;;;;-0.58;76.25;93625.76;1670312;84;21032;-57
2021/11/26 05:20:16;;;;;;;215.65;108.47;;;;;;;-0.48;76.47;93632.38;1681034;84;21021;-57
2021/11/26 05:22:42;;;;;;;253.32;125.55;;;;;;;-0.33;76.21;93623.51;1709189;82;21494;-53
2021/11/26 05:25:09;;;;;;;290.35;146.72;;;;;;;-0.39;75.29;93623.78;1713712;82;21096;-55
2021/11/26 05:27:36;;;;;;;322.02;160.90;;;;;;;-0.50;75.31;93625.84;1707391;82;21939;-56
2021/11/26 05:30:04;;;;;;;269.73;134.10;;;;;;;-0.50;75.53;93629.89;1714249;82;20970;-56
2021/11/26 05:32:31;;;;;;;295.75;143.93;;;;;;;-0.50;75.21;93641.47;1700697;83;21029;-56
2021/11/26 05:34:58;;;;;;;290.12;143.72;;;;;;;-0.57;75.07;93648.89;1683003;83;21167;-57
2021/11/26 05:37:24;;;;;;;322.58;161.15;;;;;;;-0.56;75.47;93640.97;1679102;84;21025;-58
2021/11/26 05:39:51;;;;;;;328.32;159.05;;;;;;;-0.53;75.42;93642.86;1679768;84;21516;-56
2021/11/26 05:42:18;;;;;;;323.32;155.15;;;;;;;-0.49;75.63;93641.66;1681343;84;21036;-57
2021/11/26 05:44:45;;;;;;;285.25;144.53;;;;;;;-0.41;75.65;93642.34;1676090;83;20986;-57
2021/11/26 05:47:12;;;;;;;292.25;144.00;;;;;;;-0.34;75.60;93661.15;1677903;84;21292;-57
2021/11/26 05:49:39;;;;;;;243.42;125.62;;;;;;;-0.23;75.88;93661.80;1701014;82;21034;-58
2021/11/26 05:52:07;;;;;;;244.35;119.70;;;;;;;-0.14;75.39;93664.75;1708293;83;21022;-57
2021/11/26 05:54:35;;;;;;;236.52;120.75;;;;;;;-0.14;74.81;93651.24;1718557;82;21046;-59
2021/11/26 05:57:01;;;;;;;230.60;115.47;;;;;;;-0.25;74.54;93656.03;1710480;83;21085;-57
2021/11/26 05:59:28;;;;;;;281.63;139.18;;;;;;;-0.39;74.45;93658.91;1688356;82;21158;-57
2021/11/26 06:01:56;;;;;;;270.67;137.82;;;;;;;-0.51;74.63;93658.06;1684940;84;21201;-58
2021/11/26 06:04:23;;;;;;;285.63;145.82;;;;;;;-0.50;75.28;93655.55;1705321;82;21018;-58
2021/11/26 06:06:49;;;;;;;256.00;134.93;;;;;;;-0.42;75.43;93646.21;1690309;83;21003;-58
2021/11/26 06:09:18;;;;;;;285.27;139.47;;;;;;;-0.29;75.04;93647.19;1688644;83;21085;-58
2021/11/26 06:11:46;;;;;;;286.35;147.47;;;;;;;-0.30;74.71;93648.36;1690032;84;21543;-59
2021/11/26 06:14:12;;;;;;;287.95;147.70;;;;;;;-0.34;74.73;93663.84;1691629;83;20978;-56
2021/11/26 06:16:39;;;;;;;211.60;115.10;;;;;;;-0.32;75.09;93666.91;1689145;83;21042;-59
2021/11/26 06:19:06;;;;;;;247.40;125.97;;;;;;;-0.26;75.05;93669.36;1665249;83;21187;-57
2021/11/26 06:21:32;;;;;;;292.82;159.75;;;;;;;-0.19;75.24;93653.80;1676388;84;21093;-58
2021/11/26 06:23:59;;;;;;;250.62;138.15;;;;;;;-0.10;75.26;93660.06;1707612;82;21202;-57
2021/11/26 06:26:26;;;;;;;269.98;144.53;;;;;;;-0.02;75.44;93664.41;1715342;82;21038;-58
2021/11/26 06:28:52;;;;;;;315.45;166.05;;;;;;;0.05;75.04;93664.30;1713823;83;21424;-58
2021/11/26 06:31:19;;;;;;;280.62;149.75;;;;;;;0.01;74.76;93663.58;1714574;82;21033;-59
2021/11/26 06:33:47;;;;;;;368.80;186.67;;;;;;;-0.06;74.69;93664.86;1715639;82;21526;-57
2021/11/26 06:36:13;;;;;;;371.05;196.82;;;;;;;-0.16;74.55;93653.59;1675384;84;21187;-59
2021/11/26 06:38:40;;;;;;;370.10;194.30;;;;;;;-0.18;74.98;93653.23;1658140;85;20957;-59
2021/11/26 06:41:07;;;;;;;352.38;187.65;;;;;;;-0.09;75.20;93642.67;1685093;84;21102;-58
2021/11/26 06:43:35;;;;;;;367.27;198.75;;;;;;;0.02;74.96;93633.28;1688200;82;21061;-57
2021/11/26 06:46:03;;;;;;;387.85;209.03;;;;;;;0.09;74.80;93633.17;1694908;82;21396;-58
2021/11/26 06:48:29;;;;;;;378.85;201.67;;;;;;;0.19;74.70;93633.61;1694693;83;21192;-60
2021/11/26 06:50:56;;;;;;;352.73;191.40;;;;;;;0.22;74.75;93635.50;1698017;81;21049;-58
2021/11/26 06:53:23;;;;;;;327.80;173.65;;;;;;;0.34;75.04;93636.27;1693572;82;21060;-58
2021/11/26 06:55:50;;;;;;;304.00;168.78;;;;;;;0.43;74.93;93630.52;1691269;82;21587;-56
2021/11/26 06:58:16;;;;;;;295.37;161.80;;;;;;;0.53;74.83;93621.48;1685436;81;21044;-57
2021/11/26 07:00:43;;;;;;;309.10;160.75;;;;;;;0.66;75.23;93623.80;1695978;82;22492;-58
2021/11/26 07:03:10;;;;;;;373.30;205.65;;;;;;;0.74;74.64;93622.48;1684860;81;21028;-54
2021/11/26 07:05:37;;;;;;;516.50;296.73;;;;;;;0.72;74.60;93616.73;1683786;82;21022;-60
2021/11/26 07:08:05;;;;;;;439.65;255.98;;;;;;;0.70;74.72;93608.83;1683108;82;21035;-59
2021/11/26 07:10:31;;;;;;;361.20;188.62;;;;;;;0.75;74.82;93609.13;1682861;81;21141;-59
2021/11/26 07:12:58;;;;;;;229.30;126.82;;;;;;;0.75;74.60;93602.37;1688932;81;22565;-59
2021/11/26 07:15:25;;;;;;;272.10;149.77;;;;;;;0.71;74.56;93600.89;1687569;82;21007;-58
2021/11/26 07:17:52;;;;;;;282.30;145.82;;;;;;;0.65;74.86;93593.08;1687077;82;21057;-60
2021/11/26 07:20:18;;;;;;;302.25;164.32;;;;;;;0.65;75.16;93587.09;1682400;82;21577;-56
2021/11/26 07:22:45;;;;;;;267.80;147.30;;;;;;;0.64;75.23;93586.91;1664331;81;21034;-55
2021/11/26 07:25:12;;;;;;;190.97;111.03;;;;;;;0.66;75.63;93585.91;1663313;82;21117;-55
2021/11/26 07:27:39;;;;;;;273.57;149.12;;;;;;;0.69;75.58;93587.79;1624380;85;22208;-59
2021/11/26 07:30:07;;;;;;;333.47;201.32;;;;;;;0.67;75.62;93590.14;1611714;85;21066;-55
2021/11/26 07:32:35;;;;;;;326.35;188.42;;;;;;;0.68;75.85;93584.91;1630656;85;21033;-58
2021/11/26 07:35:03;;;;;;;320.42;181.72;;;;;;;0.76;76.21;93575.48;1630254;85;21632;-59
2021/11/26 07:37:31;;;;;;;272.98;151.20;;;;;;;0.84;76.22;93574.19;1688795;82;21082;-57
2021/11/26 07:39:58;;;;;;;193.95;122.15;;;;;;;0.92;76.57;93570.17;1673476;83;21057;-58
2021/11/26 07:42:25;;;;;;;255.47;150.32;;;;;;;1.05;76.50;93559.48;1668018;82;21000;-59
2021/11/26 07:44:51;;;;;;;259.57;154.42;;;;;;;1.15;76.67;93549.05;1683793;81;21688;-62
2021/11/26 07:47:19;;;;;;;240.28;145.75;;;;;;;1.30;76.77;93548.35;1670277;81;21028;-58
2021/11/26 07:49:46;;;;;;;271.20;155.87;;;;;;;1.51;76.71;93542.50;1685795;82;21031;-60
2021/11/26 07:52:14;;;;;;;181.25;111.35;;;;;;;1.68;76.61;93531.88;1679640;82;21025;-58
2021/11/26 07:54:40;;;;;;;208.53;125.22;;;;;;;1.86;76.60;93528.19;1686695;82;21088;-56
2021/11/26 07:57:07;;;;;;;203.47;120.08;;;;;;;2.08;76.53;93526.52;1682877;82;20999;-58
2021/11/26 07:59:34;;;;;;;77.80;51.20;;;;;;;2.26;76.42;93533.06;1670248;82;21087;-56
2021/11/26 08:02:02;;;;;;;106.37;71.75;;;;;;;2.46;76.38;93535.67;1680806;82;21042;-59
2021/11/26 08:04:31;;;;;;;83.97;50.45;;;;;;;2.65;76.49;93540.27;1687218;81;21880;-58
2021/11/26 08:06:57;;;;;;;75.45;45.48;;;;;;;2.85;76.51;93534.12;1683085;83;21988;-62
2021/11/26 08:09:25;;;;;;;79.65;41.77;;;;;;;3.00;76.05;93544.77;1680966;82;21128;-57
2021/11/26 08:11:53;;;;;;;68.47;45.38;;;;;;;3.10;75.77;93535.59;1697243;81;21044;-59
2021/11/26 08:14:20;;;;;;;66.07;42.93;;;;;;;3.22;75.82;93534.88;1689839;81;22196;-58
2021/11/26 08:16:49;;;;;;;54.67;38.85;;;;;;;3.43;75.99;93535.66;1686701;81;21017;-56
2021/11/26 08:19:16;;;;;;;56.08;37.08;;;;;;;3.71;75.76;93522.76;1688324;81;21025;-58
2021/11/26 08:21:43;;;;;;;50.05;34.03;;;;;;;3.91;75.28;93522.58;1686925;81;21218;-59
2021/11/26 08:24:10;;;;;;;86.12;52.58;;;;;;;4.02;74.92;93514.25;1644923;82;21466;-57
2021/11/26 08:26:37;;;;;;;316.75;122.22;;;;;;;4.09;74.53;93509.95;1666433;82;21259;-61
2021/11/26 08:29:04;;;;;;;183.27;95.28;;;;;;;4.13;74.29;93484.77;1684449;81;21089;-63
2021/11/26 08:31:31;;;;;;;165.90;105.05;;;;;;;4.18;74.10;93480.13;1688801;81;21587;-59
2021/11/26 08:33:58;;;;;;;158.87;98.87;;;;;;;4.19;74.20;93477.57;1682447;81;21020;-63
2021/11/26 08:36:25;;;;;;;212.08;114.88;;;;;;;4.19;74.28;93468.63;1666038;81;21017;-58
2021/11/26 08:38:53;;;;;;;144.35;92.72;;;;;;;4.21;74.35;93461.56;1689919;81;21131;-54
2021/11/26 08:41:20;;;;;;;135.93;88.72;;;;;;;4.33;74.29;93465.46;1664863;83;21093;-62
2021/11/26 08:43:47;;;;;;;138.85;89.85;;;;;;;4.47;74.36;93457.62;1674592;82;21032;-60
2021/11/26 08:46:14;;;;;;;127.72;80.90;;;;;;;4.72;74.53;93464.34;1692273;82;21085;-60
2021/11/26 08:48:41;;;;;;;149.90;97.25;;;;;;;5.06;74.18;93446.61;1688356;81;21007;-58
2021/11/26 08:51:10;;;;;;;115.97;72.58;;;;;;;5.44;73.65;93443.08;1690403;81;21018;-59
2021/11/26 08:53:43;;;;;;;97.30;62.73;;;;;;;5.93;72.71;93433.06;1689652;81;21060;-60
2021/11/26 08:56:07;;;;;;;99.55;63.15;;;;;;;6.26;71.04;93430.73;1687381;82;20986;-59
2021/11/26 08:58:36;;;;;;;85.42;56.37;;;;;;;6.32;70.31;93422.72;1689912;82;21003;-59
2021/11/26 09:01:04;;;;;;;94.03;62.43;;;;;;;6.31;69.96;93415.73;1689264;82;21068;-58
2021/11/26 09:03:33;;;;;;;104.55;63.25;;;;;;;6.24;69.77;93415.41;1666892;83;22038;-58
2021/11/26 09:06:00;;;;;;;116.10;68.55;;;;;;;6.21;69.92;93408.72;1690892;81;21137;-60
2021/11/26 09:08:27;;;;;;;98.07;65.55;;;;;;;6.29;69.73;93403.11;1684480;82;21515;-57
2021/11/26 09:10:53;;;;;;;90.15;60.83;;;;;;;6.52;69.68;93401.20;1684151;82;20999;-62
2021/11/26 09:13:20;;;;;;;80.67;54.27;;;;;;;6.82;69.07;93392.87;1690158;81;21110;-57
2021/11/26 09:15:50;;;;;;;82.40;51.75;;;;;;;7.04;68.32;93387.25;1669851;82;20993;-58
2021/11/26 09:18:18;;;;;;;77.80;49.90;;;;;;;7.08;68.01;93391.95;1690550;82;21093;-61
2021/11/26 09:20:49;;;;;;;65.55;44.93;;;;;;;7.17;68.04;93379.03;1679250;81;21013;-58
2021/11/26 09:23:13;;;;;;;63.35;41.85;;;;;;;7.40;67.84;93377.00;1685253;81;21002;-57
2021/11/26 09:25:40;;;;;;;66.15;43.40;;;;;;;7.76;67.02;93370.81;1698029;81;21116;-58
2021/11/26 09:28:07;;;;;;;72.03;44.88;;;;;;;8.07;66.72;93364.42;1690231;82;21787;-59
2021/11/26 09:30:34;;;;;;;64.53;43.68;;;;;;;8.42;66.21;93369.58;1689048;82;21026;-59
2021/11/26 09:33:01;;;;;;;64.67;38.53;;;;;;;8.73;65.46;93357.66;1679490;82;21700;-58
2021/11/26 09:35:28;;;;;;;46.42;32.48;;;;;;;9.05;64.27;93360.90;1690992;82;22280;-59
2021/11/26 09:37:54;;;;;;;65.05;35.73;;;;;;;9.36;63.61;93346.87;1679974;82;21135;-59
2021/11/26 09:40:21;;;;;;;60.80;37.63;;;;;;;9.61;62.21;93338.06;1685176;81;21750;-63
2021/11/26 09:42:50;;;;;;;67.00;40.38;;;;;;;9.66;61.38;93335.27;1687784;81;21100;-58
2021/11/26 09:45:21;;;;;;;63.70;39.20;;;;;;;9.72;60.96;93329.24;1686556;81;21562;-61
2021/11/26 09:47:50;;;;;;;68.22;39.20;;;;;;;9.79;60.62;93318.63;1687295;82;21043;-59
2021/11/26 09:50:19;;;;;;;51.23;30.52;;;;;;;9.95;60.21;93309.14;1689699;81;22311;-58
2021/11/26 09:52:46;;;;;;;41.65;26.68;;;;;;;10.09;59.80;93302.86;1669282;82;21133;-61
2021/11/26 09:55:16;;;;;;;39.98;26.33;;;;;;;10.05;59.75;93288.58;1683587;81;21042;-60
2021/11/26 09:57:43;;;;;;;36.30;25.20;;;;;;;10.06;59.61;93288.71;1671784;82;21162;-57
2021/11/26 10:00:14;;;;;;;35.17;23.90;;;;;;;10.07;59.88;93286.87;1686545;82;21383;-59
2021/11/26 10:02:55;;;;;;;28.70;18.52;;;;;;;10.13;60.10;93275.97;1682259;81;21086;-57
2021/11/26 10:05:22;;;;;;;27.93;16.05;;;;;;;10.17;59.90;93273.77;1682814;81;21500;-59
2021/11/26 10:07:52;;;;;;;20.05;14.33;;;;;;;10.22;59.98;93264.83;1689674;81;21165;-62
2021/11/26 10:10:26;;;;;;;22.67;15.30;;;;;;;10.41;59.96;93259.19;1682482;82;21064;-59
2021/11/26 10:13:13;;;;;;;28.05;14.98;;;;;;;10.66;59.08;93255.13;1683197;82;22283;-59
2021/11/26 10:15:43;;;;;;;21.55;16.25;;;;;;;11.06;58.32;93248.92;1687986;82;21119;-58
2021/11/26 10:18:15;;;;;;;33.78;21.27;;;;;;;11.59;57.28;93234.63;1688150;82;21085;-57
2021/11/26 10:21:09;;;;;;;26.10;15.88;;;;;;;11.95;56.40;93233.27;1666698;82;20995;-61
2021/11/26 10:23:40;;;;;;;27.63;17.70;;;;;;;12.21;55.22;93228.39;1687330;82;21029;-59
2021/11/26 10:26:28;;;;;;;40.08;22.98;;;;;;;12.40;54.44;93211.55;1689556;81;21507;-59
2021/11/26 10:29:00;;;;;;;38.40;23.35;;;;;;;12.56;54.13;93203.33;1666004;82;21029;-57
2021/11/26 10:31:35;;;;;;;39.03;25.57;;;;;;;12.67;54.12;93208.13;1684379;82;21800;-61
2021/11/26 10:34:07;;;;;;;40.55;26.57;;;;;;;12.79;53.92;93197.25;1662675;81;21766;-64
2021/11/26 10:36:47;;;;;;;36.10;24.80;;;;;;;12.85;53.68;93183.59;1692517;81;21073;-62
2021/11/26 10:39:17;;;;;;;41.65;28.70;;;;;;;12.81;53.44;93176.20;1682069;81;21092;-60
2021/11/26 10:41:49;;;;;;;44.00;26.80;;;;;;;12.74;53.45;93173.17;1689074;82;21093;-61
2021/11/26 10:44:15;;;;;;;41.90;25.37;;;;;;;12.85;53.16;93165.66;1685457;82;22338;-60
2021/11/26 10:50:01;;;;;;;39.27;28.00;;;;;;;13.36;52.54;93152.03;1669221;82;22076;-61
2021/11/26 10:57:59;;;;;;;33.18;23.55;;;;;;;13.80;49.77;93116.80;1671694;82;21144;-59
2021/11/26 11:00:24;;;;;;;34.23;23.15;;;;;;;14.04;49.31;93112.84;1667822;82;21076;-58
2021/11/26 11:02:58;;;;;;;46.80;26.52;;;;;;;14.28;48.66;93106.11;1686766;82;21565;-58
2021/11/26 11:05:35;;;;;;;43.00;28.52;;;;;;;14.55;48.31;93091.36;1688890;81;20983;-59
2021/11/26 11:08:05;;;;;;;31.23;22.87;;;;;;;14.85;47.43;93092.92;1688150;82;21022;-57
2021/11/26 11:10:37;;;;;;;33.23;25.05;;;;;;;15.04;46.68;93084.09;1689947;81;21022;-58
2021/11/26 11:13:11;;;;;;;43.07;23.07;;;;;;;15.02;46.38;93075.55;1686860;81;21519;-61
2021/11/26 11:15:38;;;;;;;;;;;;;;;15.09;46.17;93066.70;1690899;82;21079;-60
2021/11/26 11:18:06;;;;;;;39.65;27.42;;;;;;;15.12;46.09;93055.97;1685284;82;20183;-57
2021/11/26 11:20:35;;;;;;;66.82;33.48;;;;;;;15.30;46.15;93052.56;1708379;82;21106;-59
2021/11/26 11:23:03;;;;;;;49.10;32.75;;;;;;;15.62;45.58;93048.59;1691925;82;21843;-60
2021/11/26 11:25:30;;;;;;;56.35;28.62;;;;;;;15.89;44.83;93044.13;1708668;81;21184;-62